createdAt,value
2023-01-05T00:02:24.357Z,8.07
2023-01-05T00:04:54.680Z,7.87
2023-01-05T00:07:23.265Z,6.23
2023-01-05T00:09:51.839Z,8.70
2023-01-05T00:12:37.745Z,7.77
2023-01-05T00:15:24.465Z,8.83
2023-01-05T00:18:10.190Z,7.47
2023-01-05T00:20:57.664Z,6.57
2023-01-05T00:23:26.154Z,8.07
2023-01-05T00:25:55.008Z,9.10
2023-01-05T00:28:23.535Z,10.93
2023-01-05T00:30:52.113Z,14.47
2023-01-05T00:33:20.647Z,18.20
2023-01-05T00:35:50.653Z,16.93
2023-01-05T00:38:19.166Z,15.73
2023-01-05T00:40:47.673Z,14.97
2023-01-05T00:43:16.270Z,13.73
2023-01-05T00:45:45.556Z,12.10
2023-01-05T00:48:15.284Z,10.77
2023-01-05T00:50:43.856Z,11.17
2023-01-05T00:53:13.749Z,9.43
2023-01-05T00:55:42.345Z,8.57
2023-01-05T00:58:10.905Z,7.53
2023-01-05T01:00:47.375Z,8.23
2023-01-05T01:03:16.255Z,8.80
2023-01-05T01:05:44.862Z,8.10
2023-01-05T01:08:14.748Z,6.73
2023-01-05T01:10:43.252Z,8.13
2023-01-05T01:13:11.802Z,7.37
2023-01-05T01:15:40.347Z,7.23
2023-01-05T01:18:08.820Z,8.60
2023-01-05T01:20:38.993Z,8.60
2023-01-05T01:23:07.640Z,7.20
2023-01-05T01:25:39.399Z,8.67
2023-01-05T01:28:08.165Z,7.30
2023-01-05T01:30:39.425Z,8.00
2023-01-05T01:33:07.993Z,6.43
2023-01-05T01:35:38.750Z,6.10
2023-01-05T01:38:07.271Z,6.60
2023-01-05T01:40:41.127Z,5.87
2023-01-05T01:43:21.515Z,6.03
2023-01-05T01:45:50.065Z,5.53
2023-01-05T01:48:20.164Z,6.03
2023-01-05T01:50:50.973Z,6.00
2023-01-05T01:53:23.977Z,5.37
2023-01-05T01:55:54.243Z,4.80
2023-01-05T01:58:26.824Z,5.50
2023-01-05T02:00:55.952Z,5.30
2023-01-05T02:03:25.967Z,5.27
2023-01-05T02:05:55.261Z,5.20
2023-01-05T02:08:31.503Z,5.03
2023-01-05T02:11:13.437Z,5.97
2023-01-05T02:13:53.219Z,5.03
2023-01-05T02:16:26.442Z,5.07
2023-01-05T02:19:04.863Z,5.33
2023-01-05T02:21:40.453Z,5.10
2023-01-05T02:24:42.660Z,5.80
2023-01-05T02:27:50.640Z,6.80
2023-01-05T02:30:52.411Z,6.10
2023-01-05T02:33:29.275Z,6.67
2023-01-05T02:36:02.919Z,6.93
2023-01-05T02:38:36.050Z,8.07
2023-01-05T02:41:09.043Z,8.67
2023-01-05T02:43:37.648Z,7.53
2023-01-05T02:46:06.465Z,7.97
2023-01-05T02:48:36.426Z,7.73
2023-01-05T02:51:07.574Z,7.17
2023-01-05T02:53:39.062Z,7.57
2023-01-05T02:56:11.427Z,5.10
2023-01-05T02:58:44.324Z,6.63
2023-01-05T03:01:15.939Z,5.37
2023-01-05T03:03:48.559Z,5.27
2023-01-05T03:06:20.043Z,5.20
2023-01-05T03:08:52.788Z,4.63
2023-01-05T03:11:38.986Z,4.80
2023-01-05T03:14:11.453Z,5.20
2023-01-05T03:16:40.524Z,4.70
2023-01-05T03:19:30.354Z,4.10
2023-01-05T03:22:17.199Z,4.77
2023-01-05T03:25:03.605Z,2.83
2023-01-05T03:27:50.200Z,3.30
2023-01-05T03:30:36.461Z,3.97
2023-01-05T03:33:28.085Z,3.73
2023-01-05T03:35:59.627Z,4.90
2023-01-05T03:38:31.238Z,4.87
2023-01-05T03:41:03.027Z,5.90
2023-01-05T03:43:35.148Z,5.37
2023-01-05T03:46:11.467Z,4.53
2023-01-05T03:48:40.100Z,7.63
2023-01-05T03:51:10.352Z,7.10
2023-01-05T03:53:38.945Z,7.17
2023-01-05T03:56:08.073Z,6.63
2023-01-05T03:58:36.590Z,6.23
2023-01-05T04:01:05.350Z,7.77
2023-01-05T04:03:34.085Z,11.60
2023-01-05T04:06:02.778Z,10.00
2023-01-05T04:08:32.788Z,8.73
2023-01-05T04:11:12.463Z,6.93
2023-01-05T04:13:41.005Z,6.63
2023-01-05T04:16:09.707Z,5.47
2023-01-05T04:18:38.508Z,5.23
2023-01-05T04:21:07.701Z,3.90
2023-01-05T04:23:37.883Z,4.70
2023-01-05T04:26:06.638Z,4.13
2023-01-05T04:28:35.195Z,4.93
2023-01-05T04:31:03.773Z,4.07
2023-01-05T04:33:32.346Z,3.87
2023-01-05T04:36:00.846Z,4.67
2023-01-05T04:38:29.363Z,5.17
2023-01-05T04:40:59.341Z,5.03
2023-01-05T04:43:27.952Z,6.23
2023-01-05T04:45:56.473Z,5.30
2023-01-05T04:48:25.113Z,5.73
2023-01-05T04:50:54.815Z,5.70
2023-01-05T04:53:23.793Z,5.63
2023-01-05T04:55:52.523Z,6.20
2023-01-05T04:58:22.554Z,6.60
2023-01-05T05:00:51.258Z,6.60
2023-01-05T05:03:19.979Z,5.77
2023-01-05T05:05:48.689Z,5.67
2023-01-05T05:08:17.198Z,6.60
2023-01-05T05:10:45.791Z,6.43
2023-01-05T05:13:14.552Z,6.73
2023-01-05T05:15:45.808Z,6.20
2023-01-05T05:18:14.589Z,6.10
2023-01-05T05:20:45.130Z,5.67
2023-01-05T05:23:13.975Z,5.53
2023-01-05T05:25:42.521Z,4.90
2023-01-05T05:28:11.094Z,4.73
2023-01-05T05:30:39.829Z,6.33
2023-01-05T05:33:09.722Z,6.27
2023-01-05T05:35:38.260Z,5.40
2023-01-05T05:38:06.745Z,4.70
2023-01-05T05:40:35.470Z,6.43
2023-01-05T05:43:04.018Z,6.03
2023-01-05T05:45:35.187Z,5.37
2023-01-05T05:48:03.666Z,5.17
2023-01-05T05:50:33.827Z,4.43
2023-01-05T05:53:02.419Z,5.10
2023-01-05T05:55:30.915Z,4.77
2023-01-05T05:57:59.446Z,6.30
2023-01-05T06:00:28.020Z,4.10
2023-01-05T06:02:56.599Z,5.50
2023-01-05T06:05:25.306Z,4.40
2023-01-05T06:07:55.202Z,4.10
2023-01-05T06:10:23.864Z,4.53
2023-01-05T06:12:54.453Z,4.37
2023-01-05T06:15:23.154Z,5.17
2023-01-05T06:17:51.763Z,6.40
2023-01-05T06:20:20.463Z,6.57
2023-01-05T06:22:48.941Z,7.10
2023-01-05T06:25:19.000Z,6.73
2023-01-05T06:27:47.805Z,6.33
2023-01-05T06:30:16.433Z,5.57
2023-01-05T06:32:44.975Z,6.37
2023-01-05T06:35:13.492Z,6.23
2023-01-05T06:37:42.051Z,6.00
2023-01-05T06:40:12.022Z,10.57
2023-01-05T06:42:42.321Z,9.17
2023-01-05T06:45:12.300Z,9.40
2023-01-05T06:47:41.064Z,16.70
2023-01-05T06:50:10.246Z,16.50
2023-01-05T06:52:40.362Z,14.40
2023-01-05T06:55:09.987Z,13.17
2023-01-05T06:57:38.587Z,11.20
2023-01-05T07:00:10.656Z,34.60
2023-01-05T07:02:39.162Z,17.97
2023-01-05T07:05:08.910Z,13.77
2023-01-05T07:07:37.653Z,15.07
2023-01-05T07:10:07.262Z,14.63
2023-01-05T07:12:35.945Z,13.80
2023-01-05T07:15:06.162Z,11.87
2023-01-05T07:17:36.630Z,10.50
2023-01-05T07:20:06.026Z,14.10
2023-01-05T07:22:34.580Z,31.90
2023-01-05T07:25:03.174Z,21.43
2023-01-05T07:27:31.789Z,21.17
2023-01-05T07:30:00.305Z,18.13
2023-01-05T07:32:28.849Z,20.03
2023-01-05T07:34:58.720Z,18.40
2023-01-05T07:37:27.630Z,11.93
2023-01-05T07:39:56.140Z,12.73
2023-01-05T07:42:26.125Z,10.67
2023-01-05T07:44:54.674Z,10.27
2023-01-05T07:47:23.278Z,11.17
2023-01-05T07:49:51.846Z,9.70
2023-01-05T07:52:21.784Z,9.07
2023-01-05T07:54:50.343Z,7.50
2023-01-05T07:57:18.902Z,7.60
2023-01-05T07:59:47.755Z,10.23
2023-01-05T08:02:16.382Z,11.20
2023-01-05T08:04:44.990Z,12.07
2023-01-05T08:07:15.033Z,13.50
2023-01-05T08:10:03.723Z,29.80
2023-01-05T08:12:32.419Z,49.33
2023-01-05T08:15:00.943Z,22.93
2023-01-05T08:17:29.446Z,16.47
2023-01-05T08:19:58.126Z,16.20
2023-01-05T08:22:26.644Z,17.83
2023-01-05T08:24:56.625Z,20.10
2023-01-05T08:27:25.150Z,17.50
2023-01-05T08:29:53.759Z,13.07
2023-01-05T08:32:22.308Z,17.27
2023-01-05T08:34:55.368Z,15.90
2023-01-05T08:37:24.323Z,20.10
2023-01-05T08:39:52.972Z,14.27
2023-01-05T08:42:22.969Z,17.67
2023-01-05T08:44:51.495Z,12.47
2023-01-05T08:47:20.203Z,13.23
2023-01-05T08:49:51.034Z,13.53
2023-01-05T08:52:19.809Z,12.03
2023-01-05T08:54:48.282Z,12.60
2023-01-05T08:57:16.999Z,11.03
2023-01-05T08:59:46.909Z,12.23
2023-01-05T09:02:21.650Z,12.00
2023-01-05T09:04:53.722Z,12.10
2023-01-05T09:07:22.442Z,19.57
2023-01-05T09:09:50.995Z,17.33
2023-01-05T09:12:19.545Z,16.77
2023-01-05T09:14:49.537Z,17.47
2023-01-05T09:17:18.165Z,16.63
2023-01-05T09:19:46.820Z,22.07
2023-01-05T09:22:15.342Z,14.13
2023-01-05T09:24:43.922Z,11.43
2023-01-05T09:27:12.462Z,15.17
2023-01-05T09:29:41.019Z,14.60
2023-01-05T09:32:11.608Z,20.30
2023-01-05T09:34:40.389Z,14.03
2023-01-05T09:37:09.203Z,12.50
2023-01-05T09:39:37.847Z,13.27
2023-01-05T09:42:26.771Z,11.63
2023-01-05T09:44:59.251Z,11.97
2023-01-05T09:47:33.285Z,9.23
2023-01-05T09:50:02.367Z,13.13
2023-01-05T09:52:36.129Z,14.10
2023-01-05T09:55:13.771Z,11.00
2023-01-05T09:57:42.745Z,12.57
2023-01-05T10:00:17.611Z,14.57
2023-01-05T10:02:50.960Z,12.80
2023-01-05T10:05:19.860Z,13.60
2023-01-05T10:07:52.884Z,11.97
2023-01-05T10:10:43.209Z,8.47
2023-01-05T10:13:19.754Z,13.63
2023-01-05T10:15:51.403Z,16.13
2023-01-05T10:18:26.959Z,9.93
2023-01-05T10:21:04.695Z,12.63
2023-01-05T10:23:45.575Z,8.30
2023-01-05T10:26:18.243Z,8.80
2023-01-05T10:28:51.309Z,8.40
2023-01-05T10:31:24.946Z,9.43
2023-01-05T10:34:05.019Z,11.87
2023-01-05T10:37:07.942Z,13.37
2023-01-05T10:39:56.482Z,6.87
2023-01-05T10:42:40.896Z,5.67
2023-01-05T10:45:12.103Z,8.20
2023-01-05T10:47:41.473Z,6.50
2023-01-05T10:50:37.839Z,6.50
2023-01-05T10:53:10.931Z,11.03
2023-01-05T10:55:51.526Z,11.83
2023-01-05T10:58:25.217Z,7.33
2023-01-05T11:00:56.971Z,7.10
2023-01-05T11:03:57.298Z,8.23
2023-01-05T11:06:25.114Z,6.47
2023-01-05T11:08:53.717Z,5.23
2023-01-05T11:11:25.115Z,4.33
2023-01-05T11:13:56.504Z,6.53
2023-01-05T11:16:27.706Z,7.90
2023-01-05T11:18:58.215Z,0.70
2023-01-05T11:21:29.341Z,0.83
2023-01-05T11:23:59.347Z,0.40
2023-01-05T11:26:38.886Z,0.77
2023-01-05T11:29:15.818Z,2.23
2023-01-05T11:31:48.099Z,0.63
2023-01-05T11:34:28.784Z,0.30
2023-01-05T11:37:04.110Z,0.60
2023-01-05T11:39:40.040Z,0.33
2023-01-05T11:42:20.043Z,0.50
2023-01-05T11:44:53.836Z,0.50
2023-01-05T11:47:29.328Z,2.50
2023-01-05T11:50:09.385Z,1.10
2023-01-05T11:52:42.601Z,6.10
2023-01-05T11:55:31.266Z,8.40
2023-01-05T11:58:14.609Z,1.30
2023-01-05T12:01:04.496Z,2.20
2023-01-05T12:04:01.375Z,1.00
2023-01-05T12:07:00.446Z,0.47
2023-01-05T12:09:34.956Z,0.67
2023-01-05T12:12:20.642Z,0.63
2023-01-05T12:15:16.921Z,1.80
2023-01-05T12:17:52.735Z,2.00
2023-01-05T12:20:35.231Z,1.60
2023-01-05T12:23:36.234Z,1.13
2023-01-05T12:26:19.145Z,1.97
2023-01-05T12:29:51.409Z,1.70
2023-01-05T12:35:13.506Z,3.97
2023-01-05T12:37:49.828Z,2.47
2023-01-05T12:40:40.009Z,1.93
2023-01-05T12:43:11.620Z,1.07
2023-01-05T12:45:52.658Z,1.50
2023-01-05T12:48:26.505Z,0.70
2023-01-05T12:51:00.462Z,0.50
2023-01-05T12:53:38.993Z,0.67
2023-01-05T12:56:18.477Z,0.27
2023-01-05T12:58:54.305Z,0.50
2023-01-05T13:01:26.932Z,1.57
2023-01-05T13:03:59.385Z,0.50
2023-01-05T13:06:28.747Z,1.00
2023-01-05T13:09:00.671Z,2.83
2023-01-05T13:11:32.532Z,8.37
2023-01-05T13:14:05.810Z,3.87
2023-01-05T13:16:39.247Z,0.60
2023-01-05T13:19:13.396Z,2.43
2023-01-05T13:21:45.317Z,0.67
2023-01-05T13:24:18.016Z,0.90
2023-01-05T13:26:46.543Z,1.77
2023-01-05T13:29:23.239Z,2.30
2023-01-05T13:35:23.181Z,1.20
2023-01-05T13:38:21.382Z,1.40
2023-01-05T13:41:09.903Z,2.30
2023-01-05T13:44:11.840Z,3.10
2023-01-05T13:46:57.465Z,2.23
2023-01-05T13:50:03.353Z,2.07
2023-01-05T13:52:39.137Z,3.90
2023-01-05T13:55:21.145Z,3.33
2023-01-05T13:57:55.606Z,6.87
2023-01-05T14:00:27.392Z,1.63
2023-01-05T14:03:07.609Z,2.90
2023-01-05T14:05:42.780Z,2.33
2023-01-05T14:08:21.369Z,3.10
2023-01-05T14:11:09.007Z,2.60
2023-01-05T14:13:46.102Z,2.17
2023-01-05T14:16:52.855Z,2.40
2023-01-05T14:19:27.305Z,2.73
2023-01-05T14:22:04.044Z,3.43
2023-01-05T14:24:36.337Z,10.20
2023-01-05T14:27:09.615Z,7.90
2023-01-05T14:30:21.676Z,3.60
2023-01-05T14:32:54.780Z,4.20
2023-01-05T14:35:37.165Z,4.97
2023-01-05T14:38:08.024Z,5.37
2023-01-05T14:40:39.692Z,4.67
2023-01-05T14:43:22.619Z,3.83
2023-01-05T14:46:09.735Z,3.77
2023-01-05T14:48:41.119Z,12.17
2023-01-05T14:51:23.864Z,9.20
2023-01-05T14:53:54.240Z,9.33
2023-01-05T14:56:25.714Z,13.63
2023-01-05T14:58:58.357Z,13.03
2023-01-05T15:01:29.737Z,8.37
2023-01-05T15:04:07.863Z,5.47
2023-01-05T15:06:56.658Z,1.70
2023-01-05T15:09:52.874Z,2.27
2023-01-05T15:12:37.531Z,2.50
2023-01-05T15:15:23.593Z,5.10
2023-01-05T15:18:05.539Z,3.17
2023-01-05T15:21:16.145Z,2.80
2023-01-05T15:24:02.666Z,2.63
2023-01-05T15:27:05.940Z,2.43
2023-01-05T15:29:55.016Z,1.83
2023-01-05T15:32:26.756Z,19.33
2023-01-05T15:34:57.816Z,10.87
2023-01-05T15:37:32.417Z,5.70
2023-01-05T15:40:04.428Z,4.23
2023-01-05T15:42:39.461Z,2.33
2023-01-05T15:45:11.176Z,3.70
2023-01-05T15:47:41.081Z,4.20
2023-01-05T15:50:18.764Z,14.53
2023-01-05T15:52:55.059Z,9.17
2023-01-05T15:55:25.993Z,7.03
2023-01-05T15:57:56.386Z,5.73
2023-01-05T16:00:27.141Z,6.60
2023-01-05T16:02:55.946Z,13.17
2023-01-05T16:05:25.990Z,7.97
2023-01-05T16:07:57.720Z,7.83
2023-01-05T16:10:30.443Z,7.85
2023-01-05T16:13:01.982Z,11.80
2023-01-05T16:15:33.449Z,10.50
2023-01-05T16:18:02.260Z,9.10
2023-01-05T16:20:30.876Z,9.33
2023-01-05T16:23:08.231Z,15.83
2023-01-05T16:25:43.630Z,7.40
2023-01-05T16:28:17.707Z,9.53
2023-01-05T16:30:47.568Z,9.90
2023-01-05T16:33:30.302Z,8.27
2023-01-05T16:36:13.437Z,9.10
2023-01-05T16:38:42.713Z,8.43
2023-01-05T16:41:26.379Z,8.33
2023-01-05T16:43:57.119Z,9.53
2023-01-05T16:46:33.915Z,10.63
2023-01-05T16:49:06.873Z,10.03
2023-01-05T16:51:40.771Z,11.97
2023-01-05T16:54:16.955Z,21.57
2023-01-05T16:56:58.260Z,15.83
2023-01-05T16:59:44.042Z,14.63
2023-01-05T17:02:44.347Z,16.17
2023-01-05T17:05:16.137Z,15.83
2023-01-05T17:07:46.510Z,14.47
2023-01-05T17:10:19.113Z,16.07
2023-01-05T17:12:58.044Z,14.77
2023-01-05T17:15:29.570Z,14.93
2023-01-05T17:17:58.201Z,12.70
2023-01-05T17:20:29.145Z,12.97
2023-01-05T17:22:57.992Z,16.07
2023-01-05T17:25:33.029Z,15.57
2023-01-05T17:28:02.990Z,14.63
2023-01-05T17:30:31.590Z,8.90
2023-01-05T17:33:00.205Z,6.73
2023-01-05T17:35:28.760Z,6.50
2023-01-05T17:37:57.292Z,15.50
2023-01-05T17:40:25.978Z,8.93
2023-01-05T17:42:54.922Z,7.10
2023-01-05T17:45:27.380Z,6.10
2023-01-05T17:47:55.960Z,7.77
2023-01-05T17:50:27.776Z,8.00
2023-01-05T17:52:56.631Z,6.57
2023-01-05T17:55:25.705Z,6.53
2023-01-05T17:57:54.417Z,5.70
2023-01-05T18:00:25.787Z,6.73
2023-01-05T18:02:55.277Z,7.53
2023-01-05T18:05:23.970Z,4.50
2023-01-05T18:07:52.659Z,4.40
2023-01-05T18:10:24.353Z,5.20
2023-01-05T18:12:54.494Z,6.30
2023-01-05T18:15:24.415Z,6.97
2023-01-05T18:17:52.966Z,5.63
2023-01-05T18:20:21.561Z,5.10
2023-01-05T18:22:50.633Z,4.73
2023-01-05T18:25:19.377Z,4.70
2023-01-05T18:27:47.975Z,4.17
2023-01-05T18:30:16.711Z,3.40
2023-01-05T18:32:46.850Z,3.70
2023-01-05T18:35:15.396Z,6.47
2023-01-05T18:37:43.953Z,5.90
2023-01-05T18:40:13.419Z,5.30
2023-01-05T18:42:42.083Z,5.60
2023-01-05T18:45:19.347Z,6.03
2023-01-05T18:47:58.837Z,6.00
2023-01-05T18:50:27.728Z,6.10
2023-01-05T18:52:56.248Z,6.30
2023-01-05T18:55:24.767Z,6.67
2023-01-05T18:57:53.295Z,7.20
2023-01-05T19:00:21.851Z,10.97
2023-01-05T19:02:50.389Z,13.13
2023-01-05T19:05:20.324Z,5.93
2023-01-05T19:07:52.334Z,5.80
2023-01-05T19:10:21.836Z,6.13
2023-01-05T19:12:50.617Z,5.30
2023-01-05T19:15:19.232Z,3.73
2023-01-05T19:17:50.184Z,5.60
2023-01-05T19:20:20.567Z,4.63
2023-01-05T19:22:49.145Z,5.10
2023-01-05T19:25:18.039Z,4.40
2023-01-05T19:27:46.554Z,4.30
2023-01-05T19:30:16.999Z,5.43
2023-01-05T19:32:45.579Z,4.30
2023-01-05T19:35:15.377Z,4.50
2023-01-05T19:37:45.809Z,4.60
2023-01-05T19:40:14.842Z,4.63
2023-01-05T19:42:43.488Z,5.33
2023-01-05T19:45:12.620Z,3.90
2023-01-05T19:47:42.947Z,6.17
2023-01-05T19:50:12.489Z,5.00
2023-01-05T19:52:41.670Z,6.27
2023-01-05T19:55:12.149Z,5.27
2023-01-05T19:57:40.704Z,5.57
2023-01-05T20:00:10.515Z,6.10
2023-01-05T20:02:39.346Z,4.70
2023-01-05T20:05:08.796Z,6.13
2023-01-05T20:07:41.539Z,5.37
2023-01-05T20:10:11.902Z,5.07
2023-01-05T20:12:40.612Z,5.20
2023-01-05T20:15:11.959Z,5.33
2023-01-05T20:17:42.196Z,4.20
2023-01-05T20:20:12.242Z,5.63
2023-01-05T20:22:40.931Z,5.70
2023-01-05T20:25:11.545Z,5.27
2023-01-05T20:27:40.324Z,5.57
2023-01-05T20:30:10.000Z,6.27
2023-01-05T20:32:38.560Z,5.73
2023-01-05T20:35:07.985Z,7.57
2023-01-05T20:37:36.488Z,5.87
2023-01-05T20:40:06.111Z,7.73
2023-01-05T20:42:37.791Z,6.93
2023-01-05T20:45:07.311Z,6.80
2023-01-05T20:47:46.493Z,6.57
2023-01-05T20:50:15.706Z,6.43
2023-01-05T20:52:44.288Z,5.72
2023-01-05T20:55:12.806Z,5.70
2023-01-05T20:57:43.047Z,6.07
2023-01-05T21:00:14.690Z,11.80
2023-01-05T21:02:45.378Z,25.70
2023-01-05T21:05:15.192Z,23.73
2023-01-05T21:07:43.708Z,16.27
2023-01-05T21:10:12.228Z,13.20
2023-01-05T21:12:42.276Z,9.17
2023-01-05T21:15:12.114Z,7.67
2023-01-05T21:17:40.679Z,6.20
2023-01-05T21:20:09.715Z,6.53
2023-01-05T21:22:38.235Z,6.33
2023-01-05T21:25:07.451Z,6.67
2023-01-05T21:27:36.858Z,7.27
2023-01-05T21:30:08.428Z,7.53
2023-01-05T21:32:36.981Z,8.50
2023-01-05T21:35:06.971Z,8.40
2023-01-05T21:37:35.571Z,7.97
2023-01-05T21:40:04.594Z,9.57
2023-01-05T21:42:42.408Z,8.37
2023-01-05T21:45:13.831Z,7.13
2023-01-05T21:47:42.497Z,7.50
2023-01-05T21:50:33.154Z,8.03
2023-01-05T21:53:18.882Z,5.87
2023-01-05T21:56:06.165Z,7.93
2023-01-05T21:58:35.409Z,4.63
2023-01-05T22:01:05.486Z,7.20
2023-01-05T22:03:34.039Z,5.93
2023-01-05T22:06:02.556Z,5.77
2023-01-05T22:08:31.121Z,6.37
2023-01-05T22:11:00.616Z,6.17
2023-01-05T22:13:29.199Z,6.97
2023-01-05T22:15:57.747Z,6.13
2023-01-05T22:18:27.737Z,6.57
2023-01-05T22:20:59.093Z,6.53
2023-01-05T22:23:27.953Z,6.87
2023-01-05T22:26:00.678Z,6.90
2023-01-05T22:28:29.722Z,7.83
2023-01-05T22:31:06.126Z,7.67
2023-01-05T22:33:37.032Z,7.87
2023-01-05T22:36:06.161Z,7.47
2023-01-05T22:38:36.597Z,7.40
2023-01-05T22:41:05.796Z,8.27
2023-01-05T22:43:35.014Z,6.57
2023-01-05T22:46:04.241Z,6.47
2023-01-05T22:48:35.227Z,5.97
2023-01-05T22:51:04.892Z,6.07
2023-01-05T22:53:33.467Z,6.57
2023-01-05T22:56:02.152Z,6.27
2023-01-05T22:58:30.772Z,6.83
2023-01-05T23:01:07.752Z,6.63
2023-01-05T23:03:37.747Z,5.80
2023-01-05T23:06:06.946Z,5.63
2023-01-05T23:08:36.172Z,5.93
2023-01-05T23:11:07.636Z,5.80
2023-01-05T23:13:36.416Z,6.40
2023-01-05T23:16:05.705Z,6.93
2023-01-05T23:18:37.480Z,6.20
2023-01-05T23:21:08.500Z,6.87
2023-01-05T23:23:37.661Z,6.97
2023-01-05T23:26:07.491Z,7.43
2023-01-05T23:28:36.297Z,7.67
2023-01-05T23:31:05.716Z,6.97
2023-01-05T23:33:35.572Z,8.50
2023-01-05T23:36:06.760Z,7.57
2023-01-05T23:38:35.445Z,7.30
2023-01-05T23:41:06.314Z,8.33
2023-01-05T23:43:35.679Z,7.23
2023-01-05T23:46:06.184Z,8.43
2023-01-05T23:48:37.101Z,8.87
2023-01-05T23:51:25.246Z,7.30
2023-01-05T23:53:54.643Z,7.23
2023-01-05T23:56:25.654Z,7.53
2023-01-05T23:58:57.886Z,6.63
